EPKKEPRZ

Guest
Details From EPKK - BALICE
To EPRZ - JASIONKA
Flight Number -
Tags generated
Created
Modified
Stats Distance 87 nm / 161 km
Max Altitude 2,400 ft / 732 m
Waypoints 3
Social Downloads 7
Likes 0
Share

Download

Looking for another format? Having issues loading an existing format? Contact us
Advertisement - Login to hide

Notes

Basic altitude profile: - Ascent Rate: 2500ft/min - Ascent Speed: 250kts - Cruise Altitude: 35000ft - Cruise Speed: 420kts - Descent Rate: 1500ft/min - Descent Speed: 250kts Options: - Use NATs: yes - Use PACOTS: yes - Use low airways: yes - Use high airways: yes

Route

EPKK VAVEL EPRZ

ID Type Via Altitude (ft/m) Position (lat/lon) Dist (leg/tot) Name
O EPKK APT - 0 / 0 50.07782 / 19.78550 - / 0 nm BALICE
VAVEL FIX - 2,400 / 732 50.06639 / 19.96194 6 / 6 nm
O EPRZ APT - 0 / 0 50.10761 / 22.03610 79 / 86 nm JASIONKA

Altitude Profile

Advertisement - Login to hide

EPKK

Details ICAO EPKK (KRK)
Name Krakow-John Paul II
Region Poland
Timezone Europe/Warsaw (UTC+2.0)
Stats Elevation 791 ft / 241 m (AMSL)
Location 50.077800° 19.785500°
Runways 1
Magnetic Variation 5.746° E

METAR

EPKK 242230Z 22002KT 8000 BKN050 15/14 Q1012

Decode

TAF

TAF EPKK 242030Z 2421/2521 VRB02KT 9999 BKN050 TEMPO 2421/2424 -SHRA BKN035CB PROB30 TEMPO 2500/2504 4000 BR BKN010 TEMPO 2504/2515 4000 SHRA BKN030CB BECMG 2509/2512 27010KT PROB40 TEMPO 2510/2515 VRB15G30KT TSRA

Decode

Departure Runways

ID Width Length Bearing (true/mag) Surface Threshold Overrun Markings Lighting
07 197 ft / 60 m 8,352 ft / 2,546 m 77.76° / 72.01° CONCRETE 0 ft / 0 m 0 ft / 0 m PREC-APP CENTERLINE EDGE THRESHOLD ALSF-I REIL-OMNI
25 197 ft / 60 m 8,352 ft / 2,546 m 257.78° / 252.04° CONCRETE 778 ft / 237 m 0 ft / 0 m PREC-APP CENTERLINE EDGE THRESHOLD ALSF-II TDZ REIL-OMNI

EPRZ

Details ICAO EPRZ (RZE)
Name JASIONKA
Region Poland
Timezone Europe/Warsaw (UTC+2.0)
Stats Elevation 674 ft / 205 m (AMSL)
Location 50.109900° 22.023900°
Runways 1
Magnetic Variation 6.262° E

METAR

EPRZ 242230Z 20006KT 180V240 9999 FEW033CB 16/12 Q1012

Decode

TAF

TAF AMD EPRZ 242201Z 2422/2518 16005KT CAVOK TEMPO 2422/2423 SCT040CB TEMPO 2509/2518 SHRA BKN040CB PROB40 TEMPO 2512/2518 VRB15G25KT 4000 TSRA BKN014CB BECMG 2512/2515 30010KT

Decode

Destination Runways

ID Width Length Bearing (true/mag) Surface Threshold Overrun Markings Lighting
09 148 ft / 45 m 10,509 ft / 3,203 m 91.16° / 84.90° CONCRETE 0 ft / 0 m 0 ft / 0 m PREC-APP EDGE THRESHOLD SALS
27 148 ft / 45 m 10,509 ft / 3,203 m 271.20° / 264.94° CONCRETE 2,310 ft / 704 m 0 ft / 0 m PREC-APP EDGE THRESHOLD ALSF-I TDZ

Approach Navaids

Runway Type Ident Frequency Range Bearing (true/mag) Slope Elevation
27 DME RZW 110.30 MHz 18 nm / 33 km - - 787 ft / 240 m (AMSL)
27 LOC-ILS RZW 110.30 MHz 18 nm / 33 km 271.18° / 264.92 ° - 674 ft / 205 m (AMSL)
27 GS RZW 110.30 MHz 10 nm / 19 km 271.18° / 264.92 ° 2.90° 674 ft / 205 m (AMSL)

Popular Alternatives